Time;durP1;ratioP1;P1;durP2;ratioP2;P2;SDS_P1;SDS_P2;PMS_P1;PMS_P2;Temp;Humidity;BMP_temperature;BMP_pressure;BME280_temperature;BME280_humidity;BME280_pressure;Samples;Min_cycle;Max_cycle;Signal;HPM_P1;HPM_P2
2022/04/23 00:01:52;;;;;;;23.40;14.37;;;;;;;;;;5092683;28;20510;-71
2022/04/23 00:04:19;;;;;;;23.50;14.70;;;;;;;;;;5092609;28;20955;-72
2022/04/23 00:06:48;;;;;;;19.53;12.50;;;;;;;;;;5092680;28;20454;-72
2022/04/23 00:09:15;;;;;;;19.43;13.37;;;;;;;;;;5092500;28;20474;-72
2022/04/23 00:11:43;;;;;;;19.67;13.70;;;;;;;;;;5092872;28;20446;-71
2022/04/23 00:14:10;;;;;;;20.73;14.50;;;;;;;;;;5092571;28;20454;-72
2022/04/23 00:16:37;;;;;;;22.50;14.30;;;;;;;;;;5092753;28;20454;-72
2022/04/23 00:19:06;;;;;;;20.70;14.83;;;;;;;;;;5092464;28;20471;-72
2022/04/23 00:21:33;;;;;;;20.80;14.47;;;;;;;;;;5092560;28;20802;-72
2022/04/23 00:24:00;;;;;;;19.00;13.97;;;;;;;;;;5092336;28;20458;-72
2022/04/23 00:26:27;;;;;;;25.73;16.23;;;;;;;;;;5095310;28;20446;-71
2022/04/23 00:28:54;;;;;;;23.57;15.50;;;;;;;;;;5096178;28;20470;-72
2022/04/23 00:31:21;;;;;;;22.03;14.30;;;;;;;;;;5096244;28;20457;-71
2022/04/23 00:33:48;;;;;;;28.90;15.97;;;;;;;;;;5095863;28;20455;-72
2022/04/23 00:36:17;;;;;;;23.53;16.13;;;;;;;;;;5095874;28;20450;-72
2022/04/23 00:38:49;;;;;;;23.17;16.33;;;;;;;;;;5096260;28;20987;-72
2022/04/23 00:43:57;;;;;;;23.90;16.30;;;;;;;;;;5095426;28;21009;-72
2022/04/23 00:46:24;;;;;;;20.97;14.60;;;;;;;;;;5095779;28;20447;-72
2022/04/23 00:48:51;;;;;;;24.40;16.90;;;;;;;;;;5095838;28;20462;-72
2022/04/23 00:51:20;;;;;;;23.87;16.40;;;;;;;;;;5095862;28;20450;-71
2022/04/23 00:53:48;;;;;;;20.23;13.73;;;;;;;;;;5095661;28;20454;-71
2022/04/23 00:56:16;;;;;;;27.43;16.10;;;;;;;;;;5095785;28;20458;-72
2022/04/23 00:58:45;;;;;;;24.90;16.60;;;;;;;;;;5095589;28;20467;-72
2022/04/23 01:01:12;;;;;;;21.50;14.20;;;;;;;;;;5095413;28;20871;-72
2022/04/23 01:03:39;;;;;;;21.47;16.30;;;;;;;;;;5095497;28;20875;-72
2022/04/23 01:06:10;;;;;;;25.20;16.20;;;;;;;;;;5095417;28;20450;-72
2022/04/23 01:08:39;;;;;;;22.33;14.80;;;;;;;;;;5095624;28;20524;-72
2022/04/23 01:11:06;;;;;;;22.20;15.40;;;;;;;;;;5095510;28;20454;-71
2022/04/23 01:13:33;;;;;;;20.80;16.07;;;;;;;;;;5095134;28;20837;-72
2022/04/23 01:16:02;;;;;;;23.47;16.17;;;;;;;;;;5095240;28;20458;-72
2022/04/23 01:18:29;;;;;;;22.33;15.80;;;;;;;;;;5095171;28;20478;-72
2022/04/23 01:20:57;;;;;;;22.97;16.40;;;;;;;;;;5095145;28;20449;-72
2022/04/23 01:23:25;;;;;;;22.10;14.87;;;;;;;;;;5095309;28;20489;-72
2022/04/23 01:25:53;;;;;;;22.20;12.90;;;;;;;;;;5095054;28;20447;-72
2022/04/23 01:28:21;;;;;;;29.40;18.90;;;;;;;;;;5095149;28;20924;-72
2022/04/23 01:30:48;;;;;;;23.83;16.43;;;;;;;;;;5095363;28;20486;-72
2022/04/23 01:33:16;;;;;;;23.10;14.70;;;;;;;;;;5094997;28;20450;-71
2022/04/23 01:35:43;;;;;;;25.47;16.33;;;;;;;;;;5094764;28;20451;-71
2022/04/23 01:38:12;;;;;;;20.50;15.50;;;;;;;;;;5093887;28;20474;-72
2022/04/23 01:40:39;;;;;;;20.17;14.40;;;;;;;;;;5095039;28;20438;-73
2022/04/23 01:43:07;;;;;;;27.60;15.17;;;;;;;;;;5094474;28;21033;-72
2022/04/23 01:45:34;;;;;;;30.33;18.57;;;;;;;;;;5094492;28;20458;-72
2022/04/23 01:48:01;;;;;;;23.00;15.90;;;;;;;;;;5094649;28;20461;-72
2022/04/23 01:50:28;;;;;;;24.37;15.43;;;;;;;;;;5094635;28;20475;-71
2022/04/23 01:52:55;;;;;;;24.50;16.63;;;;;;;;;;5094872;28;20443;-72
2022/04/23 01:55:24;;;;;;;24.90;17.00;;;;;;;;;;5094530;28;20446;-72
2022/04/23 01:57:51;;;;;;;25.57;15.37;;;;;;;;;;5094531;28;20457;-72
2022/04/23 02:00:18;;;;;;;27.80;17.20;;;;;;;;;;5094354;28;20470;-72
2022/04/23 02:02:46;;;;;;;24.77;16.10;;;;;;;;;;5094401;28;20489;-71
2022/04/23 02:05:14;;;;;;;23.23;14.53;;;;;;;;;;5094169;28;20500;-72
2022/04/23 02:07:41;;;;;;;26.40;16.17;;;;;;;;;;5094239;28;20459;-72
2022/04/23 02:10:10;;;;;;;24.90;15.87;;;;;;;;;;5094015;28;20474;-72
2022/04/23 02:12:38;;;;;;;28.87;16.07;;;;;;;;;;5094302;28;20951;-71
2022/04/23 02:15:07;;;;;;;22.03;16.10;;;;;;;;;;5093894;28;20490;-72
2022/04/23 02:17:34;;;;;;;26.60;16.20;;;;;;;;;;5094161;28;20541;-72
2022/04/23 02:20:03;;;;;;;19.87;15.30;;;;;;;;;;5093990;28;20510;-72
2022/04/23 02:22:30;;;;;;;23.80;16.30;;;;;;;;;;5093964;28;20510;-72
2022/04/23 02:24:57;;;;;;;25.90;16.97;;;;;;;;;;5093835;28;20451;-71
2022/04/23 02:27:24;;;;;;;25.33;15.73;;;;;;;;;;5094081;28;20482;-72
2022/04/23 02:29:53;;;;;;;26.00;15.87;;;;;;;;;;5093686;28;20486;-73
2022/04/23 02:32:20;;;;;;;23.40;13.87;;;;;;;;;;5093787;28;20455;-71
2022/04/23 02:34:47;;;;;;;25.27;18.30;;;;;;;;;;5093569;28;20861;-72
2022/04/23 02:37:14;;;;;;;27.07;17.30;;;;;;;;;;5093804;28;20459;-72
2022/04/23 02:39:43;;;;;;;24.70;16.73;;;;;;;;;;5094137;28;20474;-72
2022/04/23 02:42:10;;;;;;;21.80;15.03;;;;;;;;;;5093640;28;20446;-72
2022/04/23 02:44:37;;;;;;;25.63;17.20;;;;;;;;;;5093682;28;20462;-72
2022/04/23 02:47:06;;;;;;;23.63;15.17;;;;;;;;;;5093685;28;20446;-72
2022/04/23 02:49:33;;;;;;;25.60;15.50;;;;;;;;;;5093209;28;20835;-72
2022/04/23 02:52:00;;;;;;;24.93;14.53;;;;;;;;;;5093560;28;20975;-72
2022/04/23 02:54:27;;;;;;;25.93;16.97;;;;;;;;;;5093557;28;20943;-72
2022/04/23 02:56:55;;;;;;;28.40;15.93;;;;;;;;;;5093625;28;20447;-72
2022/04/23 02:59:22;;;;;;;29.03;16.77;;;;;;;;;;5093328;28;20467;-72
2022/04/23 03:01:50;;;;;;;25.40;15.67;;;;;;;;;;5093384;28;20455;-72
2022/04/23 03:04:19;;;;;;;24.97;17.70;;;;;;;;;;5093256;28;20569;-71
2022/04/23 03:06:46;;;;;;;24.00;15.63;;;;;;;;;;5093280;28;20462;-71
2022/04/23 03:09:13;;;;;;;23.73;16.80;;;;;;;;;;5093260;28;20481;-71
2022/04/23 03:11:40;;;;;;;26.57;16.97;;;;;;;;;;5093318;28;20447;-72
2022/04/23 03:14:07;;;;;;;24.90;16.00;;;;;;;;;;5093250;28;20450;-71
2022/04/23 03:16:34;;;;;;;24.77;17.33;;;;;;;;;;5093334;28;20446;-72
2022/04/23 03:19:02;;;;;;;23.77;17.93;;;;;;;;;;5093395;28;20471;-72
2022/04/23 03:21:30;;;;;;;25.97;15.27;;;;;;;;;;5092829;28;20453;-72
2022/04/23 03:23:57;;;;;;;26.17;17.00;;;;;;;;;;5092781;28;20497;-72
2022/04/23 03:26:24;;;;;;;23.20;15.67;;;;;;;;;;5093307;28;20442;-72
2022/04/23 03:28:51;;;;;;;22.43;15.70;;;;;;;;;;5093091;28;20463;-72
2022/04/23 03:31:18;;;;;;;23.57;16.10;;;;;;;;;;5092944;28;20494;-73
2022/04/23 03:33:45;;;;;;;32.63;17.73;;;;;;;;;;5092753;28;20462;-72
2022/04/23 03:36:12;;;;;;;25.90;15.27;;;;;;;;;;5093120;28;20493;-72
2022/04/23 03:38:43;;;;;;;23.03;15.27;;;;;;;;;;5092918;28;20517;-72
2022/04/23 03:41:10;;;;;;;23.47;14.43;;;;;;;;;;5093194;28;20829;-71
2022/04/23 03:43:37;;;;;;;25.33;17.30;;;;;;;;;;5093017;28;20991;-72
2022/04/23 03:46:05;;;;;;;21.87;16.20;;;;;;;;;;5093042;28;21008;-72
2022/04/23 03:48:32;;;;;;;25.40;16.67;;;;;;;;;;5092982;28;20474;-72
2022/04/23 03:50:59;;;;;;;22.30;15.40;;;;;;;;;;5093140;28;20462;-72
2022/04/23 03:53:26;;;;;;;21.77;15.70;;;;;;;;;;5092926;28;20451;-72
2022/04/23 03:55:54;;;;;;;21.63;15.40;;;;;;;;;;5093060;28;20451;-71
2022/04/23 03:58:21;;;;;;;24.83;16.50;;;;;;;;;;5092802;28;20462;-72
2022/04/23 04:00:48;;;;;;;20.13;14.27;;;;;;;;;;5094935;28;20943;-72
2022/04/23 04:03:15;;;;;;;21.07;14.53;;;;;;;;;;5096692;28;20485;-72
2022/04/23 04:05:43;;;;;;;22.73;15.83;;;;;;;;;;5096527;28;20465;-72
2022/04/23 04:08:12;;;;;;;23.33;16.27;;;;;;;;;;5096659;28;20497;-72
2022/04/23 04:10:39;;;;;;;25.20;15.00;;;;;;;;;;5096532;28;20461;-72
2022/04/23 04:13:07;;;;;;;20.07;15.03;;;;;;;;;;5096558;28;20450;-72
2022/04/23 04:15:35;;;;;;;19.20;12.87;;;;;;;;;;5096310;28;20455;-71
2022/04/23 04:18:02;;;;;;;20.03;15.40;;;;;;;;;;5096490;28;20458;-71
2022/04/23 04:20:32;;;;;;;20.33;14.33;;;;;;;;;;5096717;28;20464;-72
2022/04/23 04:23:00;;;;;;;22.97;15.10;;;;;;;;;;5095983;28;20827;-71
2022/04/23 04:25:27;;;;;;;20.93;15.10;;;;;;;;;;5096195;28;20450;-72
2022/04/23 04:27:54;;;;;;;28.60;17.87;;;;;;;;;;5096301;28;20449;-71
2022/04/23 04:30:22;;;;;;;30.80;20.17;;;;;;;;;;5096093;28;20477;-71
2022/04/23 04:32:49;;;;;;;20.83;13.97;;;;;;;;;;5096305;28;20439;-72
2022/04/23 04:35:16;;;;;;;22.70;15.33;;;;;;;;;;5096195;28;20470;-71
2022/04/23 04:37:44;;;;;;;17.30;12.23;;;;;;;;;;5096056;28;20825;-72
2022/04/23 04:40:11;;;;;;;20.70;13.40;;;;;;;;;;5095800;28;20510;-72
2022/04/23 04:42:38;;;;;;;18.20;12.93;;;;;;;;;;5096090;28;20450;-72
2022/04/23 04:45:07;;;;;;;19.70;15.23;;;;;;;;;;5095531;28;20486;-71
2022/04/23 04:47:36;;;;;;;22.83;14.40;;;;;;;;;;5095985;28;20457;-72
2022/04/23 04:50:03;;;;;;;21.33;13.90;;;;;;;;;;5095982;28;20471;-72
2022/04/23 04:52:30;;;;;;;20.07;13.50;;;;;;;;;;5095740;28;20450;-72
2022/04/23 04:54:57;;;;;;;20.10;13.63;;;;;;;;;;5095546;28;20442;-72
2022/04/23 04:57:24;;;;;;;17.93;13.40;;;;;;;;;;5095641;28;20443;-71
2022/04/23 04:59:51;;;;;;;22.40;17.23;;;;;;;;;;5095601;28;20459;-72
2022/04/23 05:02:18;;;;;;;20.23;14.10;;;;;;;;;;5095674;28;20455;-72
2022/04/23 05:04:46;;;;;;;20.90;15.40;;;;;;;;;;5095329;28;20478;-72
2022/04/23 05:07:14;;;;;;;25.43;14.20;;;;;;;;;;5095469;28;20455;-71
2022/04/23 05:09:41;;;;;;;21.07;14.50;;;;;;;;;;5095395;28;20481;-71
2022/04/23 05:12:09;;;;;;;20.00;14.43;;;;;;;;;;5095283;28;20458;-72
2022/04/23 05:14:36;;;;;;;23.00;15.27;;;;;;;;;;5095171;28;20488;-71
2022/04/23 05:17:03;;;;;;;23.27;16.60;;;;;;;;;;5095280;28;20443;-72
2022/04/23 05:19:30;;;;;;;20.80;13.00;;;;;;;;;;5095094;28;20467;-72
2022/04/23 05:21:59;;;;;;;24.80;15.47;;;;;;;;;;5094921;28;20457;-72
2022/04/23 05:24:26;;;;;;;23.63;16.23;;;;;;;;;;5094924;28;20563;-71
2022/04/23 05:26:53;;;;;;;20.87;14.20;;;;;;;;;;5095073;28;20450;-71
2022/04/23 05:29:20;;;;;;;23.77;18.07;;;;;;;;;;5094912;28;20474;-71
2022/04/23 05:31:47;;;;;;;22.17;14.53;;;;;;;;;;5094977;28;20463;-72
2022/04/23 05:34:14;;;;;;;21.13;14.87;;;;;;;;;;5094626;28;20462;-72
2022/04/23 05:36:41;;;;;;;22.40;16.47;;;;;;;;;;5094907;28;20462;-72
2022/04/23 05:39:09;;;;;;;20.77;15.07;;;;;;;;;;5094761;28;20478;-71
2022/04/23 05:41:36;;;;;;;17.70;13.17;;;;;;;;;;5095066;28;20796;-71
2022/04/23 05:44:04;;;;;;;24.90;15.73;;;;;;;;;;5094483;28;21018;-72
2022/04/23 05:46:31;;;;;;;23.40;17.00;;;;;;;;;;5094572;28;20451;-72
2022/04/23 05:48:59;;;;;;;21.10;15.30;;;;;;;;;;5094598;28;20475;-72
2022/04/23 05:51:27;;;;;;;18.97;14.67;;;;;;;;;;5094645;28;20462;-71
2022/04/23 05:53:54;;;;;;;32.33;16.07;;;;;;;;;;5094325;28;20492;-71
2022/04/23 05:56:22;;;;;;;26.53;16.97;;;;;;;;;;5094478;28;20451;-71
2022/04/23 05:58:49;;;;;;;21.77;15.30;;;;;;;;;;5094351;28;20477;-71
2022/04/23 06:01:16;;;;;;;27.37;18.00;;;;;;;;;;5094465;28;20449;-72
2022/04/23 06:03:43;;;;;;;24.10;18.00;;;;;;;;;;5094155;28;20486;-75
2022/04/23 06:06:10;;;;;;;25.23;14.70;;;;;;;;;;5094302;28;20450;-71
2022/04/23 06:08:41;;;;;;;29.77;16.33;;;;;;;;;;5094206;28;20482;-71
2022/04/23 06:11:08;;;;;;;26.97;16.93;;;;;;;;;;5094384;28;20505;-71
2022/04/23 06:13:37;;;;;;;25.13;19.63;;;;;;;;;;5094208;28;20435;-72
2022/04/23 06:16:04;;;;;;;26.60;17.23;;;;;;;;;;5094023;28;20944;-72
2022/04/23 06:18:31;;;;;;;25.70;16.37;;;;;;;;;;5094138;28;20470;-72
2022/04/23 06:20:58;;;;;;;28.27;18.70;;;;;;;;;;5094357;28;20821;-72
2022/04/23 06:23:25;;;;;;;26.77;17.73;;;;;;;;;;5093180;28;20875;-72
2022/04/23 06:25:53;;;;;;;25.57;16.93;;;;;;;;;;5094171;28;20825;-72
2022/04/23 06:28:20;;;;;;;28.87;18.03;;;;;;;;;;5093752;28;20529;-73
2022/04/23 06:30:48;;;;;;;23.50;14.13;;;;;;;;;;5094113;28;20459;-71
2022/04/23 06:33:16;;;;;;;26.60;17.70;;;;;;;;;;5093921;28;20455;-71
2022/04/23 06:35:43;;;;;;;27.07;18.00;;;;;;;;;;5093731;28;20932;-71
2022/04/23 06:38:10;;;;;;;30.33;18.80;;;;;;;;;;5093687;28;20455;-72
2022/04/23 06:40:37;;;;;;;27.80;17.70;;;;;;;;;;5093775;28;20438;-72
2022/04/23 06:43:04;;;;;;;30.60;17.90;;;;;;;;;;5093499;28;20450;-72
2022/04/23 06:45:31;;;;;;;32.97;19.03;;;;;;;;;;5093480;28;20486;-72
2022/04/23 06:48:04;;;;;;;25.43;16.93;;;;;;;;;;5093591;28;20455;-72
2022/04/23 06:50:31;;;;;;;30.83;18.90;;;;;;;;;;5093484;28;20458;-72
2022/04/23 06:52:59;;;;;;;27.70;17.47;;;;;;;;;;5093450;28;20446;-72
2022/04/23 06:55:26;;;;;;;25.57;15.97;;;;;;;;;;5093479;28;20508;-72
2022/04/23 06:57:53;;;;;;;27.33;16.77;;;;;;;;;;5093384;28;20450;-72
2022/04/23 07:00:21;;;;;;;27.47;18.07;;;;;;;;;;5093364;28;20467;-72
2022/04/23 07:02:48;;;;;;;25.97;16.60;;;;;;;;;;5093317;28;20508;-72
2022/04/23 07:05:16;;;;;;;16.60;11.90;;;;;;;;;;5093076;28;21011;-71
2022/04/23 07:07:55;;;;;;;27.00;16.60;;;;;;;;;;5093391;28;20451;-71
2022/04/23 07:10:23;;;;;;;28.23;18.00;;;;;;;;;;5093420;28;20899;-72
2022/04/23 07:12:52;;;;;;;25.30;14.30;;;;;;;;;;5093207;28;20459;-71
2022/04/23 07:15:19;;;;;;;24.33;16.13;;;;;;;;;;5092971;28;20442;-71
2022/04/23 07:17:47;;;;;;;23.53;14.40;;;;;;;;;;5093373;28;20435;-71
2022/04/23 07:20:14;;;;;;;21.10;13.13;;;;;;;;;;5093303;28;20470;-71
2022/04/23 07:24:02;;;;;;;21.63;13.67;;;;;;;;;;5092801;28;20454;-72
2022/04/23 07:25:30;;;;;;;27.20;16.97;;;;;;;;;;5092616;28;20482;-71
2022/04/23 07:27:58;;;;;;;24.70;16.97;;;;;;;;;;5093331;28;20939;-71
2022/04/23 07:30:25;;;;;;;27.40;18.77;;;;;;;;;;5093028;28;20475;-71
2022/04/23 07:32:53;;;;;;;29.57;19.47;;;;;;;;;;5092841;28;20461;-73
2022/04/23 07:38:13;;;;;;;26.13;17.90;;;;;;;;;;5097135;28;20922;-72
2022/04/23 07:40:40;;;;;;;34.20;18.73;;;;;;;;;;5097445;28;20958;-71
2022/04/23 07:43:10;;;;;;;35.17;20.10;;;;;;;;;;5096940;28;20504;-72
2022/04/23 07:45:37;;;;;;;30.83;16.40;;;;;;;;;;5096901;28;20955;-72
2022/04/23 07:48:04;;;;;;;28.87;17.27;;;;;;;;;;5097021;28;20473;-72
2022/04/23 07:50:31;;;;;;;23.57;14.00;;;;;;;;;;5097254;28;20451;-71
2022/04/23 07:52:58;;;;;;;29.80;18.47;;;;;;;;;;5096803;28;20935;-72
2022/04/23 07:55:29;;;;;;;21.00;12.93;;;;;;;;;;5096732;28;20954;-71
2022/04/23 07:57:58;;;;;;;26.07;16.87;;;;;;;;;;5096596;28;20458;-72
2022/04/23 08:00:26;;;;;;;33.23;19.00;;;;;;;;;;5096974;28;20463;-72
2022/04/23 08:02:53;;;;;;;33.37;16.33;;;;;;;;;;5096812;28;20508;-72
2022/04/23 08:05:20;;;;;;;33.43;17.60;;;;;;;;;;5096336;28;20486;-72
2022/04/23 08:07:47;;;;;;;26.53;16.30;;;;;;;;;;5096661;28;20449;-71
2022/04/23 08:10:14;;;;;;;26.87;17.20;;;;;;;;;;5096419;28;20466;-72
2022/04/23 08:12:43;;;;;;;24.43;16.70;;;;;;;;;;5096585;28;20461;-72
2022/04/23 08:15:11;;;;;;;27.03;15.60;;;;;;;;;;5096332;28;20478;-72
2022/04/23 08:17:39;;;;;;;21.80;13.30;;;;;;;;;;5096565;28;20466;-71
2022/04/23 08:20:06;;;;;;;25.03;16.27;;;;;;;;;;5096284;28;20466;-71
2022/04/23 08:22:33;;;;;;;32.80;18.17;;;;;;;;;;5095787;28;20458;-72
2022/04/23 08:25:01;;;;;;;28.30;16.07;;;;;;;;;;5096067;28;21006;-72
2022/04/23 08:27:28;;;;;;;32.93;19.73;;;;;;;;;;5096391;28;20473;-72
2022/04/23 08:32:41;;;;;;;32.63;19.97;;;;;;;;;;5096256;28;20426;-71
2022/04/23 08:35:08;;;;;;;33.03;16.87;;;;;;;;;;5095786;28;20531;-71
2022/04/23 08:37:35;;;;;;;26.37;16.97;;;;;;;;;;5096057;28;20451;-71
2022/04/23 08:40:04;;;;;;;22.73;14.17;;;;;;;;;;5095908;28;20477;-71
2022/04/23 08:42:31;;;;;;;21.57;14.03;;;;;;;;;;5096002;28;20860;-71
2022/04/23 08:45:00;;;;;;;25.93;15.40;;;;;;;;;;5095719;28;20882;-72
2022/04/23 08:47:27;;;;;;;21.90;16.50;;;;;;;;;;5095235;28;20545;-71
2022/04/23 08:49:55;;;;;;;21.40;13.70;;;;;;;;;;5095960;28;20471;-72
2022/04/23 08:52:28;;;;;;;24.33;14.80;;;;;;;;;;5095927;28;20458;-71
2022/04/23 08:54:55;;;;;;;25.87;15.07;;;;;;;;;;5095729;28;20457;-71
2022/04/23 08:57:22;;;;;;;20.80;14.50;;;;;;;;;;5095865;28;20536;-71
2022/04/23 08:59:53;;;;;;;24.93;14.97;;;;;;;;;;5095608;28;20469;-71
2022/04/23 09:02:22;;;;;;;22.43;13.60;;;;;;;;;;5095545;28;20493;-72
2022/04/23 09:04:49;;;;;;;23.87;15.03;;;;;;;;;;5095282;28;20571;-72
2022/04/23 09:07:20;;;;;;;30.37;16.10;;;;;;;;;;5095556;28;20450;-71
2022/04/23 09:09:51;;;;;;;26.37;16.57;;;;;;;;;;5095422;28;20475;-72
2022/04/23 09:12:19;;;;;;;25.60;16.73;;;;;;;;;;5095484;28;20870;-72
2022/04/23 09:14:46;;;;;;;23.20;15.00;;;;;;;;;;5095119;28;20483;-72
2022/04/23 09:25:40;;;;;;;27.53;15.10;;;;;;;;;;5095091;28;20481;-72
2022/04/23 09:28:19;;;;;;;26.93;17.63;;;;;;;;;;5094937;28;20454;-71
2022/04/23 09:30:47;;;;;;;26.73;14.43;;;;;;;;;;5095115;28;20473;-71
2022/04/23 09:33:14;;;;;;;32.40;21.20;;;;;;;;;;5094945;28;20482;-71
2022/04/23 09:35:56;;;;;;;31.13;17.70;;;;;;;;;;5094606;28;20451;-72
2022/04/23 09:38:25;;;;;;;32.10;18.83;;;;;;;;;;5092711;28;20523;-71
2022/04/23 09:40:52;;;;;;;32.63;19.60;;;;;;;;;;5094814;28;20447;-72
2022/04/23 09:43:25;;;;;;;25.60;14.57;;;;;;;;;;5094678;28;20863;-71
2022/04/23 09:46:00;;;;;;;28.40;17.20;;;;;;;;;;5094661;28;20490;-71
2022/04/23 09:48:27;;;;;;;27.80;16.37;;;;;;;;;;5094664;28;20853;-72
2022/04/23 09:50:54;;;;;;;29.50;18.37;;;;;;;;;;5094626;28;20455;-72
2022/04/23 09:53:22;;;;;;;30.03;16.30;;;;;;;;;;5094536;28;20446;-74
2022/04/23 09:55:50;;;;;;;25.87;15.37;;;;;;;;;;5094359;28;20447;-71
2022/04/23 09:58:17;;;;;;;24.43;18.57;;;;;;;;;;5093634;28;20486;-72
2022/04/23 10:00:45;;;;;;;21.03;15.90;;;;;;;;;;5094552;28;20455;-72
2022/04/23 10:03:13;;;;;;;20.40;12.73;;;;;;;;;;5094403;28;20970;-72
2022/04/23 10:05:41;;;;;;;25.00;14.77;;;;;;;;;;5094290;28;20483;-71
2022/04/23 10:08:12;;;;;;;31.97;18.77;;;;;;;;;;5094218;28;20836;-72
2022/04/23 10:10:44;;;;;;;27.40;17.53;;;;;;;;;;5094229;28;20494;-72
2022/04/23 10:13:13;;;;;;;23.10;14.20;;;;;;;;;;5094198;28;20479;-72
2022/04/23 10:15:41;;;;;;;31.30;17.60;;;;;;;;;;5093976;28;20484;-71
2022/04/23 10:18:10;;;;;;;30.17;15.73;;;;;;;;;;5093906;28;20457;-72
2022/04/23 10:20:40;;;;;;;27.53;18.10;;;;;;;;;;5094071;28;20455;-72
2022/04/23 10:23:10;;;;;;;37.37;18.07;;;;;;;;;;5093682;28;20463;-72
2022/04/23 10:25:45;;;;;;;27.90;17.03;;;;;;;;;;5093705;28;20548;-72
2022/04/23 10:28:14;;;;;;;22.07;14.30;;;;;;;;;;5093805;28;21023;-72
2022/04/23 10:30:41;;;;;;;23.10;14.67;;;;;;;;;;5094104;28;20939;-71
2022/04/23 10:33:26;;;;;;;29.47;16.07;;;;;;;;;;5093933;28;20459;-72
2022/04/23 10:36:08;;;;;;;20.10;13.20;;;;;;;;;;5093708;28;20447;-72
2022/04/23 10:38:38;;;;;;;29.53;18.20;;;;;;;;;;5093812;28;21040;-72
2022/04/23 10:41:06;;;;;;;23.50;16.20;;;;;;;;;;5093780;28;20869;-72
2022/04/23 10:43:35;;;;;;;25.23;14.70;;;;;;;;;;5093483;28;20513;-71
2022/04/23 10:46:02;;;;;;;19.17;12.70;;;;;;;;;;5093404;28;20867;-72
2022/04/23 10:48:30;;;;;;;42.40;20.50;;;;;;;;;;5093370;28;20479;-72
2022/04/23 10:51:01;;;;;;;27.37;16.60;;;;;;;;;;5093596;28;20967;-72
2022/04/23 10:53:29;;;;;;;22.13;15.50;;;;;;;;;;5093525;28;20810;-72
2022/04/23 10:56:08;;;;;;;19.97;13.70;;;;;;;;;;5093291;28;20459;-72
2022/04/23 10:58:37;;;;;;;23.90;16.30;;;;;;;;;;5093418;28;20477;-71
2022/04/23 11:01:21;;;;;;;24.00;15.33;;;;;;;;;;5093708;28;20508;-72
2022/04/23 11:03:58;;;;;;;23.83;15.17;;;;;;;;;;5093192;28;20463;-72
2022/04/23 11:12:18;;;;;;;24.77;16.03;;;;;;;;;;5093033;28;20415;-71
2022/04/23 11:14:48;;;;;;;17.27;10.87;;;;;;;;;;5093215;28;20453;-71
2022/04/23 11:17:17;;;;;;;22.27;15.60;;;;;;;;;;5093163;28;20497;-71
2022/04/23 11:19:45;;;;;;;24.10;11.60;;;;;;;;;;5093114;28;21001;-73
2022/04/23 11:22:13;;;;;;;22.03;13.67;;;;;;;;;;5092703;28;20832;-72
2022/04/23 11:24:41;;;;;;;19.80;14.23;;;;;;;;;;5092830;28;20466;-71
2022/04/23 11:27:08;;;;;;;22.27;16.23;;;;;;;;;;5093100;28;20486;-71
2022/04/23 11:29:35;;;;;;;15.73;12.70;;;;;;;;;;5093331;28;20485;-71
2022/04/23 11:32:04;;;;;;;21.13;14.17;;;;;;;;;;5093105;28;20480;-72
2022/04/23 11:34:31;;;;;;;20.87;15.20;;;;;;;;;;5092760;28;20446;-73
2022/04/23 11:36:58;;;;;;;17.70;13.67;;;;;;;;;;5092983;28;20443;-71
2022/04/23 11:39:30;;;;;;;18.33;12.17;;;;;;;;;;5092822;28;20474;-72
2022/04/23 11:41:57;;;;;;;17.53;13.00;;;;;;;;;;5093055;28;21020;-72
2022/04/23 11:44:45;;;;;;;19.43;14.40;;;;;;;;;;5093039;28;20454;-72
2022/04/23 11:47:15;;;;;;;13.03;10.13;;;;;;;;;;5092696;28;21003;-72
2022/04/23 11:49:42;;;;;;;18.40;13.73;;;;;;;;;;5092790;28;20470;-72
2022/04/23 11:52:11;;;;;;;23.13;15.10;;;;;;;;;;5092762;28;20458;-72
2022/04/23 11:54:39;;;;;;;15.77;11.33;;;;;;;;;;5092936;28;21000;-72
2022/04/23 11:57:07;;;;;;;20.00;15.17;;;;;;;;;;5092774;28;20454;-72
2022/04/23 11:59:37;;;;;;;25.47;15.13;;;;;;;;;;5092788;28;21049;-72
2022/04/23 12:02:05;;;;;;;19.90;13.83;;;;;;;;;;5092656;28;20462;-72
2022/04/23 12:04:42;;;;;;;19.77;14.97;;;;;;;;;;5092871;28;20833;-72
2022/04/23 12:07:10;;;;;;;15.63;9.73;;;;;;;;;;5092725;28;20520;-72
2022/04/23 12:09:45;;;;;;;14.87;12.37;;;;;;;;;;5093033;28;20524;-71
2022/04/23 12:12:12;;;;;;;17.57;13.43;;;;;;;;;;5092590;28;20523;-72
2022/04/23 12:14:44;;;;;;;18.90;13.60;;;;;;;;;;5092677;28;20871;-72
2022/04/23 12:17:11;;;;;;;21.50;14.40;;;;;;;;;;5092799;28;20955;-71
2022/04/23 12:19:38;;;;;;;18.37;13.67;;;;;;;;;;5092927;28;20470;-72
2022/04/23 12:22:06;;;;;;;17.83;13.13;;;;;;;;;;5094795;28;20457;-72
2022/04/23 12:24:34;;;;;;;19.63;12.83;;;;;;;;;;5095952;28;20462;-72
2022/04/23 12:27:02;;;;;;;19.67;14.37;;;;;;;;;;5096232;28;20497;-72
2022/04/23 12:40:45;;;;;;;19.43;14.00;;;;;;;;;;5096232;28;20452;-71
2022/04/23 12:43:22;;;;;;;16.53;12.70;;;;;;;;;;5096227;28;20446;-72
2022/04/23 12:45:49;;;;;;;21.23;15.13;;;;;;;;;;5095699;28;20477;-72
2022/04/23 12:48:16;;;;;;;17.87;12.80;;;;;;;;;;5095912;28;20956;-72
2022/04/23 12:50:44;;;;;;;19.27;14.43;;;;;;;;;;5095796;28;20454;-71
2022/04/23 12:53:13;;;;;;;21.53;14.73;;;;;;;;;;5095837;28;20589;-72
2022/04/23 12:55:51;;;;;;;20.10;16.10;;;;;;;;;;5095609;28;20479;-72
2022/04/23 12:58:18;;;;;;;24.40;15.73;;;;;;;;;;5095647;28;20466;-72
2022/04/23 13:00:45;;;;;;;21.10;16.27;;;;;;;;;;5095831;28;20973;-71
2022/04/23 13:03:25;;;;;;;19.13;14.90;;;;;;;;;;5095666;28;20824;-71
2022/04/23 13:05:52;;;;;;;26.00;15.37;;;;;;;;;;5095506;28;20477;-71
2022/04/23 13:13:46;;;;;;;19.50;14.67;;;;;;;;;;5095027;28;21024;-72
2022/04/23 13:16:14;;;;;;;23.03;15.30;;;;;;;;;;5095439;28;20450;-71
2022/04/23 13:18:41;;;;;;;19.60;14.50;;;;;;;;;;5095470;28;20493;-72
2022/04/23 13:21:08;;;;;;;19.13;14.13;;;;;;;;;;5095132;28;20445;-71
2022/04/23 13:23:36;;;;;;;23.63;16.10;;;;;;;;;;5094513;28;20478;-72
2022/04/23 13:26:04;;;;;;;17.20;13.33;;;;;;;;;;5095147;28;20493;-72
2022/04/23 13:28:31;;;;;;;22.93;15.03;;;;;;;;;;5095154;28;20459;-72
2022/04/23 13:30:58;;;;;;;22.43;15.00;;;;;;;;;;5095246;28;20458;-71
2022/04/23 13:33:25;;;;;;;22.53;15.50;;;;;;;;;;5094928;28;20455;-71
2022/04/23 13:35:52;;;;;;;19.67;14.50;;;;;;;;;;5094902;28;20447;-72
2022/04/23 13:38:20;;;;;;;23.57;16.63;;;;;;;;;;5094970;28;20442;-72
2022/04/23 13:40:49;;;;;;;20.73;16.33;;;;;;;;;;5095003;28;20451;-72
2022/04/23 13:43:16;;;;;;;20.03;14.67;;;;;;;;;;5094774;28;20450;-71
2022/04/23 13:45:44;;;;;;;21.40;13.17;;;;;;;;;;5094381;28;20450;-72
2022/04/23 13:48:11;;;;;;;24.20;14.97;;;;;;;;;;5094496;28;20929;-72
2022/04/23 13:50:38;;;;;;;31.33;16.03;;;;;;;;;;5094860;28;20944;-72
2022/04/23 13:53:06;;;;;;;22.07;16.00;;;;;;;;;;5095154;28;20820;-72
2022/04/23 13:55:33;;;;;;;20.87;13.00;;;;;;;;;;5094552;28;20559;-72
2022/04/23 13:58:01;;;;;;;21.70;14.43;;;;;;;;;;5094569;28;20462;-72
2022/04/23 14:00:29;;;;;;;20.13;13.00;;;;;;;;;;5094512;28;20477;-72
2022/04/23 14:11:12;;;;;;;22.50;16.20;;;;;;;;;;5094588;28;20453;-72
2022/04/23 14:13:40;;;;;;;18.10;15.30;;;;;;;;;;5094514;28;20541;-72
2022/04/23 14:16:09;;;;;;;20.73;15.40;;;;;;;;;;5094166;28;20453;-72
2022/04/23 14:18:37;;;;;;;20.77;16.43;;;;;;;;;;5094009;28;20481;-72
2022/04/23 14:21:04;;;;;;;21.20;16.90;;;;;;;;;;5094288;28;20500;-73
2022/04/23 14:23:31;;;;;;;29.63;15.53;;;;;;;;;;5093479;28;20462;-72
2022/04/23 14:25:58;;;;;;;19.73;13.70;;;;;;;;;;5093881;28;20462;-72
2022/04/23 14:28:26;;;;;;;21.23;14.87;;;;;;;;;;5093917;28;20478;-72
2022/04/23 14:30:54;;;;;;;22.10;16.40;;;;;;;;;;5093041;28;20446;-73
2022/04/23 14:33:21;;;;;;;19.47;14.53;;;;;;;;;;5094093;28;20458;-73
2022/04/23 14:35:48;;;;;;;25.17;16.60;;;;;;;;;;5093832;28;20450;-72
2022/04/23 14:38:15;;;;;;;21.47;15.47;;;;;;;;;;5093607;28;20443;-72
2022/04/23 14:40:42;;;;;;;20.57;14.80;;;;;;;;;;5093785;28;20450;-72
2022/04/23 14:43:10;;;;;;;21.40;15.23;;;;;;;;;;5093659;28;20454;-72
2022/04/23 14:45:39;;;;;;;23.70;18.43;;;;;;;;;;5093016;28;20500;-72
2022/04/23 14:48:09;;;;;;;25.87;16.07;;;;;;;;;;5093456;28;20492;-73
2022/04/23 14:53:18;;;;;;;46.83;16.63;;;;;;;;;;5093481;28;20494;-72
2022/04/23 14:55:46;;;;;;;22.20;17.20;;;;;;;;;;5093547;28;20454;-72
2022/04/23 14:58:14;;;;;;;22.47;15.40;;;;;;;;;;5093379;28;20497;-72
2022/04/23 15:00:41;;;;;;;21.03;15.27;;;;;;;;;;5093604;28;20538;-72
2022/04/23 15:03:09;;;;;;;24.77;17.50;;;;;;;;;;5093425;28;20818;-73
2022/04/23 15:05:36;;;;;;;19.80;14.10;;;;;;;;;;5093457;28;20948;-71
2022/04/23 15:08:03;;;;;;;23.40;16.67;;;;;;;;;;5093358;28;20497;-71
2022/04/23 15:10:31;;;;;;;23.63;16.40;;;;;;;;;;5093626;28;20951;-72
2022/04/23 15:12:59;;;;;;;25.13;17.37;;;;;;;;;;5093549;28;20453;-72